Nearby METAR Reports

 

KSJC - San Jose, California, USA
Distance from station: NE 9mi, 14km
Updated: 06/22/2024 7:53pm
Clear
Clear
 Wind from NW
Wind: NW 10 mph , 17 km/h
Temperature: 88°F , 31°C
Dew Point: 55°F , 13°C
Humidity: 33%
Barometer: 29.77 inHg , 1008.1 hPa
Clouds: Clear
Visibility: 10 miles , 16 km
2024/06/22 23:53 KSJC 222353Z 32009KT 10SM CLR 31/13 A2977 RMK AO2 SLP080 T03110128 10317 20256 58007
KNUQ - Moffett Nas/Mtn, California, USA
Distance from station: N 9mi, 14km
Updated: 06/22/2024 8:10pm
Clear
Clear
 Wind from N
Wind: N 10 mph , 17 km/h
Temperature: 77°F , 25°C
Dew Point: 61°F , 16°C
Humidity: 57%
Barometer: 29.78 inHg , 1008.5 hPa
Clouds: Clear
Visibility: 10 miles , 16 km
2024/06/23 00:10 KNUQ 230010Z AUTO 36009KT 10SM CLR 25/16 A2978 RMK AO2
KPAO - Palo Alto, California, USA
Distance from station: NNW 14mi, 23km
Updated: 06/22/2024 7:47pm
Clear
Clear
 Wind from NW
Wind: NW 12 mph , 19 km/h
Temperature: 75°F , 24°C
Dew Point: 59°F , 15°C
Humidity: 57%
Barometer: 29.79 inHg , 1008.8 hPa
Clouds: Clear
Visibility: 10 miles , 16 km
2024/06/22 23:47 KPAO 222347Z 32010KT 10SM SKC 24/15 A2979
 
KRHV - San Jose/Reid, California, USA
Distance from station: ENE 12mi, 19km
Updated: 06/22/2024 7:47pm
Clear
Clear
 Wind from NW
Wind: NW 9 mph , 15 km/h
Temperature: 91°F , 33°C
Dew Point: 55°F , 13°C
Humidity: 30%
Barometer: 29.78 inHg , 1008.5 hPa
Clouds: Clear
Visibility: 10 miles , 16 km
2024/06/22 23:47 KRHV 222347Z 31008KT 10SM SKC 33/13 A2978
KOAK - Oakland, California, USA
Distance from station: NNW 31mi, 50km
Updated: 06/22/2024 7:53pm
Few Clouds
Few Clouds
 Wind from NW
Wind: NW 15 mph , 24 km/h
Temperature: 73°F , 23°C
Dew Point: 55°F , 13°C
Humidity: 53%
Barometer: 29.79 inHg , 1008.8 hPa
Clouds: Few Clouds
Visibility: 10 miles , 16 km
Cloud details: Few Clouds 700 ft
2024/06/22 23:53 KOAK 222353Z 31013KT 10SM FEW007 23/13 A2979 RMK AO2 SLP088 T02280128 10244 20178 57005
KSQL - San Carlos Airpo, California, USA
Distance from station: NW 21mi, 34km
Updated: 06/22/2024 7:50pm
Clear
Clear
 Wind from N
Wind: N 10 mph , 17 km/h
Temperature: 75°F , 24°C
Dew Point: 57°F , 14°C
Humidity: 54%
Barometer: 29.79 inHg , 1008.8 hPa
Clouds: Clear
Visibility: 10 miles , 16 km
2024/06/22 23:50 KSQL 222350Z 36009KT 10SM CLR 24/14 A2979
 
KSFO - San Francisco, California, USA
Distance from station: NW 30mi, 49km
Updated: 06/22/2024 7:56pm
Few Clouds
Few Clouds
 Wind from WNW
Wind: WNW 20 mph , 31 km/h
Temperature: 64°F , 18°C
Dew Point: 52°F , 11°C
Humidity: 64%
Barometer: 29.79 inHg , 1008.8 hPa
Clouds: Few Clouds
Visibility: 10 miles , 16 km
Cloud details: Few Clouds 700 ft
2024/06/22 23:56 KSFO 222356Z 30017KT 10SM FEW007 18/11 A2979 RMK AO2 SLP087 T01780106 10206 20172 56007
KE16 - San Martin, California, USA
Distance from station: ESE 27mi, 43km
Updated: 06/22/2024 8:15pm
Clear
Clear
 Wind from SE
Wind: SE 13 mph , 20 km/h
Temperature: 86°F , 30°C
Dew Point: 50°F , 10°C
Humidity: 29%
Barometer: 29.79 inHg , 1008.8 hPa
Clouds: Clear
Visibility: 10 miles , 16 km
2024/06/23 00:15 KE16 230015Z AUTO 14011KT 10SM CLR 30/10 A2979 RMK AO2
KWVI - Watsonville, California, USA
Distance from station: SSE 27mi, 44km
Updated: 06/22/2024 7:53pm
Clear
Clear
 Wind from S
Wind: S 7 mph , 11 km/h
Temperature: 68°F , 20°C
Dew Point: 54°F , 12°C
Humidity: 60%
Barometer: 29.85 inHg , 1010.8 hPa
Clouds: Clear
Visibility: 10 miles , 16 km
2024/06/22 23:53 KWVI 222353Z AUTO 19006KT 10SM CLR 20/12 A2985 RMK AO2 SLP108 T02000122 10233 20189 50000
 
KHAF - Half Moon Bay, California, USA
Distance from station: WNW 31mi, 50km
Updated: 06/21/2024 6:15pm
NOT Current
Partly cloudy
Partly cloudy
 Wind from W
Wind: W 7 mph , 11 km/h
Temperature: 55°F , 13°C
Dew Point: 54°F , 12°C
Humidity: 94%
Barometer: 29.87 inHg , 1011.5 hPa
Clouds: Partly cloudy
Visibility: 8 miles , 13 km
Cloud details: Partly cloudy 800 ft
2024/06/21 22:15 KHAF 212215Z AUTO 28006KT 8SM SCT008 13/12 A2987 RMK AO2
KHWD - Hayward, California, USA
Distance from station: N 28mi, 44km
Updated: 06/22/2024 7:54pm
Clear
Clear
 Wind from WNW
Wind: WNW 9 mph , 15 km/h
Temperature: 82°F , 28°C
Heat Index: 82°F , 28°C
Dew Point: 57°F , 14°C
Humidity: 42%
Barometer: 29.78 inHg , 1008.5 hPa
Clouds: Clear
Visibility: 10 miles , 16 km
2024/06/22 23:54 KHWD 222354Z 29008KT 10SM CLR 28/14 A2978 RMK AO2 SLP092 T02780139 10289 20206 56007
KLVK - Livermore, California, USA
Distance from station: NNE 31mi, 51km
Updated: 06/22/2024 7:53pm
Clear
Clear
 Wind from WNW
Wind: WNW 14 mph , 22 km/h
Temperature: 99°F , 37°C
Dew Point: 37°F , 3°C
Humidity: 12%
Barometer: 29.75 inHg , 1007.5 hPa
Clouds: Clear
Visibility: 10 miles , 16 km
2024/06/22 23:53 KLVK 222353Z 29012KT 10SM CLR 37/03 A2975 RMK AO2 SLP069 T03720033 10383 20283 56006